sensor_id;sensor_type;location;lat;lon;timestamp;P1;P2;P0
72467;PMS3003;60626;43.582;1.470;2023-03-01T00:01:04;39.75;35.25;23.50
72467;PMS3003;60626;43.582;1.470;2023-03-01T00:03:32;43.00;36.25;24.00
72467;PMS3003;60626;43.582;1.470;2023-03-01T00:06:00;49.00;36.00;24.50
72467;PMS3003;60626;43.582;1.470;2023-03-01T00:08:26;52.25;39.50;26.50
72467;PMS3003;60626;43.582;1.470;2023-03-01T00:11:07;47.75;39.25;25.50
72467;PMS3003;60626;43.582;1.470;2023-03-01T00:13:38;52.75;40.25;26.00
72467;PMS3003;60626;43.582;1.470;2023-03-01T00:16:05;43.25;37.50;26.00
72467;PMS3003;60626;43.582;1.470;2023-03-01T00:18:33;49.25;38.75;27.00
72467;PMS3003;60626;43.582;1.470;2023-03-01T00:21:00;54.00;41.75;27.00
72467;PMS3003;60626;43.582;1.470;2023-03-01T00:23:27;56.00;44.00;28.75
72467;PMS3003;60626;43.582;1.470;2023-03-01T00:25:54;54.50;44.75;28.50
72467;PMS3003;60626;43.582;1.470;2023-03-01T00:28:21;56.25;44.25;27.25
72467;PMS3003;60626;43.582;1.470;2023-03-01T00:30:47;61.50;45.50;29.50
72467;PMS3003;60626;43.582;1.470;2023-03-01T00:33:14;55.75;43.25;29.25
72467;PMS3003;60626;43.582;1.470;2023-03-01T00:35:41;53.75;41.75;29.75
72467;PMS3003;60626;43.582;1.470;2023-03-01T00:38:08;52.25;43.75;27.50
72467;PMS3003;60626;43.582;1.470;2023-03-01T00:40:34;56.00;43.50;29.00
72467;PMS3003;60626;43.582;1.470;2023-03-01T00:43:02;51.50;43.50;30.00
72467;PMS3003;60626;43.582;1.470;2023-03-01T00:45:29;52.75;43.00;29.00
72467;PMS3003;60626;43.582;1.470;2023-03-01T00:47:57;50.25;41.50;28.75
72467;PMS3003;60626;43.582;1.470;2023-03-01T00:50:24;52.75;42.00;29.50
72467;PMS3003;60626;43.582;1.470;2023-03-01T00:52:54;52.00;44.50;28.25
72467;PMS3003;60626;43.582;1.470;2023-03-01T00:55:22;55.50;45.25;29.50
72467;PMS3003;60626;43.582;1.470;2023-03-01T00:57:49;53.50;43.00;28.75
72467;PMS3003;60626;43.582;1.470;2023-03-01T01:00:16;53.75;41.50;28.50
72467;PMS3003;60626;43.582;1.470;2023-03-01T01:02:43;55.50;44.25;28.75
72467;PMS3003;60626;43.582;1.470;2023-03-01T01:05:10;53.50;40.75;28.00
72467;PMS3003;60626;43.582;1.470;2023-03-01T01:07:37;57.25;42.75;29.00
72467;PMS3003;60626;43.582;1.470;2023-03-01T01:10:04;54.25;43.50;29.00
72467;PMS3003;60626;43.582;1.470;2023-03-01T01:12:32;49.50;40.00;24.50
72467;PMS3003;60626;43.582;1.470;2023-03-01T01:14:59;49.50;40.25;28.25
72467;PMS3003;60626;43.582;1.470;2023-03-01T01:17:25;55.25;45.25;30.50
72467;PMS3003;60626;43.582;1.470;2023-03-01T01:19:52;55.00;44.00;27.50
72467;PMS3003;60626;43.582;1.470;2023-03-01T01:22:18;49.75;42.25;28.25
72467;PMS3003;60626;43.582;1.470;2023-03-01T01:24:45;58.50;45.25;30.00
72467;PMS3003;60626;43.582;1.470;2023-03-01T01:27:12;50.50;40.50;27.75
72467;PMS3003;60626;43.582;1.470;2023-03-01T01:29:38;55.00;43.75;27.75
72467;PMS3003;60626;43.582;1.470;2023-03-01T01:32:05;54.75;45.00;30.00
72467;PMS3003;60626;43.582;1.470;2023-03-01T01:34:32;54.25;42.50;28.50
72467;PMS3003;60626;43.582;1.470;2023-03-01T01:36:58;42.50;37.00;22.50
72467;PMS3003;60626;43.582;1.470;2023-03-01T01:39:28;49.00;40.50;26.00
72467;PMS3003;60626;43.582;1.470;2023-03-01T01:41:55;41.50;35.25;23.75
72467;PMS3003;60626;43.582;1.470;2023-03-01T01:44:25;48.00;39.50;26.00
72467;PMS3003;60626;43.582;1.470;2023-03-01T01:47:00;35.75;33.75;23.50
72467;PMS3003;60626;43.582;1.470;2023-03-01T01:52:04;32.25;30.25;21.00
72467;PMS3003;60626;43.582;1.470;2023-03-01T01:54:38;33.25;26.25;19.50
72467;PMS3003;60626;43.582;1.470;2023-03-01T01:57:38;36.50;32.75;21.50
72467;PMS3003;60626;43.582;1.470;2023-03-01T02:00:19;34.50;33.00;21.75
72467;PMS3003;60626;43.582;1.470;2023-03-01T02:02:49;38.75;28.75;19.50
72467;PMS3003;60626;43.582;1.470;2023-03-01T02:05:26;31.75;31.25;20.00
72467;PMS3003;60626;43.582;1.470;2023-03-01T02:08:01;31.00;29.50;20.00
72467;PMS3003;60626;43.582;1.470;2023-03-01T02:10:27;41.25;34.00;22.50
72467;PMS3003;60626;43.582;1.470;2023-03-01T02:12:55;28.75;27.50;20.00
72467;PMS3003;60626;43.582;1.470;2023-03-01T02:15:25;28.00;28.00;20.00
72467;PMS3003;60626;43.582;1.470;2023-03-01T02:17:52;32.00;29.50;19.00
72467;PMS3003;60626;43.582;1.470;2023-03-01T02:22:56;34.25;31.50;18.75
72467;PMS3003;60626;43.582;1.470;2023-03-01T02:28:01;35.50;32.75;19.50
72467;PMS3003;60626;43.582;1.470;2023-03-01T02:30:34;30.25;25.50;17.00
72467;PMS3003;60626;43.582;1.470;2023-03-01T02:33:02;34.50;29.00;22.25
72467;PMS3003;60626;43.582;1.470;2023-03-01T02:35:32;32.25;31.75;22.00
72467;PMS3003;60626;43.582;1.470;2023-03-01T02:38:02;37.25;27.75;19.75
72467;PMS3003;60626;43.582;1.470;2023-03-01T02:40:29;32.25;32.25;23.00
72467;PMS3003;60626;43.582;1.470;2023-03-01T02:42:57;37.25;33.75;21.75
72467;PMS3003;60626;43.582;1.470;2023-03-01T02:45:25;33.25;29.75;19.75
72467;PMS3003;60626;43.582;1.470;2023-03-01T02:47:53;38.00;34.25;20.50
72467;PMS3003;60626;43.582;1.470;2023-03-01T02:55:42;32.25;31.00;21.50
72467;PMS3003;60626;43.582;1.470;2023-03-01T02:58:09;39.00;34.00;22.00
72467;PMS3003;60626;43.582;1.470;2023-03-01T03:00:36;42.25;35.50;22.75
72467;PMS3003;60626;43.582;1.470;2023-03-01T03:03:06;40.75;34.00;21.50
72467;PMS3003;60626;43.582;1.470;2023-03-01T03:05:33;39.50;33.25;21.25
72467;PMS3003;60626;43.582;1.470;2023-03-01T03:08:00;39.75;34.25;22.75
72467;PMS3003;60626;43.582;1.470;2023-03-01T03:10:29;43.50;34.50;23.00
72467;PMS3003;60626;43.582;1.470;2023-03-01T03:12:59;35.75;32.50;23.25
72467;PMS3003;60626;43.582;1.470;2023-03-01T03:15:27;41.50;35.50;23.00
72467;PMS3003;60626;43.582;1.470;2023-03-01T03:17:55;35.25;34.25;24.50
72467;PMS3003;60626;43.582;1.470;2023-03-01T03:20:24;42.00;37.25;23.75
72467;PMS3003;60626;43.582;1.470;2023-03-01T03:22:54;38.75;34.00;23.25
72467;PMS3003;60626;43.582;1.470;2023-03-01T03:25:21;41.00;37.25;25.00
72467;PMS3003;60626;43.582;1.470;2023-03-01T03:27:49;41.00;35.50;23.25
72467;PMS3003;60626;43.582;1.470;2023-03-01T03:30:24;41.00;35.75;25.00
72467;PMS3003;60626;43.582;1.470;2023-03-01T03:32:56;39.75;36.50;23.25
72467;PMS3003;60626;43.582;1.470;2023-03-01T03:35:25;47.25;37.00;25.00
72467;PMS3003;60626;43.582;1.470;2023-03-01T03:37:54;51.25;40.25;25.00
72467;PMS3003;60626;43.582;1.470;2023-03-01T03:40:36;40.50;34.50;24.50
72467;PMS3003;60626;43.582;1.470;2023-03-01T03:43:04;41.25;36.50;24.75
72467;PMS3003;60626;43.582;1.470;2023-03-01T03:45:32;43.75;37.75;25.25
72467;PMS3003;60626;43.582;1.470;2023-03-01T03:48:00;40.00;35.00;24.25
72467;PMS3003;60626;43.582;1.470;2023-03-01T03:50:27;48.50;37.50;25.00
72467;PMS3003;60626;43.582;1.470;2023-03-01T03:52:53;46.50;36.25;25.00
72467;PMS3003;60626;43.582;1.470;2023-03-01T03:55:20;43.00;37.00;25.00
72467;PMS3003;60626;43.582;1.470;2023-03-01T03:57:47;39.50;37.00;24.50
72467;PMS3003;60626;43.582;1.470;2023-03-01T04:00:18;45.00;38.25;25.00
72467;PMS3003;60626;43.582;1.470;2023-03-01T04:02:47;41.50;36.25;25.00
72467;PMS3003;60626;43.582;1.470;2023-03-01T04:05:15;38.75;33.50;20.25
72467;PMS3003;60626;43.582;1.470;2023-03-01T04:07:45;53.50;40.25;25.25
72467;PMS3003;60626;43.582;1.470;2023-03-01T04:10:13;47.50;38.00;25.00
72467;PMS3003;60626;43.582;1.470;2023-03-01T04:12:42;39.75;35.25;24.75
72467;PMS3003;60626;43.582;1.470;2023-03-01T04:15:10;43.75;34.50;23.50
72467;PMS3003;60626;43.582;1.470;2023-03-01T04:17:41;44.75;36.75;22.75
72467;PMS3003;60626;43.582;1.470;2023-03-01T04:20:12;43.25;36.75;25.00
72467;PMS3003;60626;43.582;1.470;2023-03-01T04:22:43;41.25;36.50;23.00
72467;PMS3003;60626;43.582;1.470;2023-03-01T04:25:13;41.50;37.00;24.25
72467;PMS3003;60626;43.582;1.470;2023-03-01T04:27:40;42.00;36.50;24.00
72467;PMS3003;60626;43.582;1.470;2023-03-01T04:30:07;42.25;34.75;23.25
72467;PMS3003;60626;43.582;1.470;2023-03-01T04:32:35;42.25;35.25;23.50
72467;PMS3003;60626;43.582;1.470;2023-03-01T04:35:02;41.50;34.25;23.00
72467;PMS3003;60626;43.582;1.470;2023-03-01T04:37:29;40.75;35.25;24.00
72467;PMS3003;60626;43.582;1.470;2023-03-01T04:39:56;38.25;30.50;18.00
72467;PMS3003;60626;43.582;1.470;2023-03-01T04:42:22;37.50;32.50;23.00
72467;PMS3003;60626;43.582;1.470;2023-03-01T04:44:49;34.75;33.50;22.75
72467;PMS3003;60626;43.582;1.470;2023-03-01T04:47:17;38.50;35.25;23.25
72467;PMS3003;60626;43.582;1.470;2023-03-01T04:49:44;31.25;31.25;22.25
72467;PMS3003;60626;43.582;1.470;2023-03-01T04:52:10;45.75;38.00;23.75
72467;PMS3003;60626;43.582;1.470;2023-03-01T04:54:37;35.25;33.50;22.25
72467;PMS3003;60626;43.582;1.470;2023-03-01T04:57:03;40.25;34.50;23.75
72467;PMS3003;60626;43.582;1.470;2023-03-01T04:59:30;40.50;35.00;23.75
72467;PMS3003;60626;43.582;1.470;2023-03-01T05:01:57;37.75;36.00;23.50
72467;PMS3003;60626;43.582;1.470;2023-03-01T05:04:23;35.50;32.25;23.25
72467;PMS3003;60626;43.582;1.470;2023-03-01T05:06:50;33.50;33.50;23.00
72467;PMS3003;60626;43.582;1.470;2023-03-01T05:09:19;45.50;33.75;23.00
72467;PMS3003;60626;43.582;1.470;2023-03-01T05:11:46;32.25;32.25;22.75
72467;PMS3003;60626;43.582;1.470;2023-03-01T05:14:13;33.00;27.25;23.00
72467;PMS3003;60626;43.582;1.470;2023-03-01T05:16:39;42.00;36.25;24.50
72467;PMS3003;60626;43.582;1.470;2023-03-01T05:19:06;34.75;33.00;22.75
72467;PMS3003;60626;43.582;1.470;2023-03-01T05:21:42;36.25;33.00;19.00
72467;PMS3003;60626;43.582;1.470;2023-03-01T05:24:28;43.75;38.25;25.25
72467;PMS3003;60626;43.582;1.470;2023-03-01T05:26:59;40.25;37.25;26.25
72467;PMS3003;60626;43.582;1.470;2023-03-01T05:29:28;39.75;35.25;23.00
72467;PMS3003;60626;43.582;1.470;2023-03-01T05:31:58;39.50;35.50;24.50
72467;PMS3003;60626;43.582;1.470;2023-03-01T05:34:26;41.50;37.00;23.00
72467;PMS3003;60626;43.582;1.470;2023-03-01T05:36:54;46.00;39.00;25.00
72467;PMS3003;60626;43.582;1.470;2023-03-01T05:39:21;41.75;36.75;25.00
72467;PMS3003;60626;43.582;1.470;2023-03-01T05:41:56;43.75;35.25;23.00
72467;PMS3003;60626;43.582;1.470;2023-03-01T05:44:25;46.50;36.75;23.75
72467;PMS3003;60626;43.582;1.470;2023-03-01T05:46:53;43.00;37.50;25.25
72467;PMS3003;60626;43.582;1.470;2023-03-01T05:49:20;39.00;33.75;23.00
72467;PMS3003;60626;43.582;1.470;2023-03-01T05:51:51;42.75;35.50;25.25
72467;PMS3003;60626;43.582;1.470;2023-03-01T05:54:19;37.00;35.00;23.25
72467;PMS3003;60626;43.582;1.470;2023-03-01T05:56:47;39.75;35.75;23.00
72467;PMS3003;60626;43.582;1.470;2023-03-01T05:59:17;36.00;34.75;22.75
72467;PMS3003;60626;43.582;1.470;2023-03-01T06:01:43;43.25;34.50;22.00
72467;PMS3003;60626;43.582;1.470;2023-03-01T06:04:10;47.25;37.75;24.50
72467;PMS3003;60626;43.582;1.470;2023-03-01T06:06:37;41.25;33.25;23.00
72467;PMS3003;60626;43.582;1.470;2023-03-01T06:09:04;41.75;35.75;23.75
72467;PMS3003;60626;43.582;1.470;2023-03-01T06:11:34;39.50;33.50;22.75
72467;PMS3003;60626;43.582;1.470;2023-03-01T06:14:01;36.75;33.00;22.75
72467;PMS3003;60626;43.582;1.470;2023-03-01T06:16:29;40.50;37.25;25.00
72467;PMS3003;60626;43.582;1.470;2023-03-01T06:18:56;52.75;39.00;24.00
72467;PMS3003;60626;43.582;1.470;2023-03-01T06:21:23;51.00;38.25;26.00
72467;PMS3003;60626;43.582;1.470;2023-03-01T06:23:49;49.00;38.00;23.25
72467;PMS3003;60626;43.582;1.470;2023-03-01T06:26:16;47.50;38.25;26.25
72467;PMS3003;60626;43.582;1.470;2023-03-01T06:28:42;43.25;36.75;25.25
72467;PMS3003;60626;43.582;1.470;2023-03-01T06:31:12;51.50;41.75;27.00
72467;PMS3003;60626;43.582;1.470;2023-03-01T06:33:39;46.50;38.00;25.25
72467;PMS3003;60626;43.582;1.470;2023-03-01T06:36:05;35.50;31.00;23.00
72467;PMS3003;60626;43.582;1.470;2023-03-01T06:38:33;36.00;33.25;23.25
72467;PMS3003;60626;43.582;1.470;2023-03-01T06:40:59;40.00;31.50;23.00
72467;PMS3003;60626;43.582;1.470;2023-03-01T06:43:27;41.25;36.00;25.25
72467;PMS3003;60626;43.582;1.470;2023-03-01T06:45:54;53.75;40.00;25.25
72467;PMS3003;60626;43.582;1.470;2023-03-01T06:48:20;43.25;37.25;25.75
72467;PMS3003;60626;43.582;1.470;2023-03-01T06:50:47;53.25;42.00;26.75
72467;PMS3003;60626;43.582;1.470;2023-03-01T06:53:14;45.25;38.50;25.75
72467;PMS3003;60626;43.582;1.470;2023-03-01T06:55:40;51.75;40.00;27.25
72467;PMS3003;60626;43.582;1.470;2023-03-01T06:58:08;38.00;33.50;24.75
72467;PMS3003;60626;43.582;1.470;2023-03-01T07:00:35;46.50;40.25;26.25
72467;PMS3003;60626;43.582;1.470;2023-03-01T07:03:02;39.25;37.25;25.25
72467;PMS3003;60626;43.582;1.470;2023-03-01T07:05:29;43.25;36.50;25.50
72467;PMS3003;60626;43.582;1.470;2023-03-01T07:07:56;41.00;35.25;23.00
72467;PMS3003;60626;43.582;1.470;2023-03-01T07:10:23;47.00;35.75;25.00
72467;PMS3003;60626;43.582;1.470;2023-03-01T07:12:50;43.25;37.50;24.25
72467;PMS3003;60626;43.582;1.470;2023-03-01T07:15:16;42.50;36.75;23.00
72467;PMS3003;60626;43.582;1.470;2023-03-01T07:17:43;39.50;35.25;21.25
72467;PMS3003;60626;43.582;1.470;2023-03-01T07:20:10;44.50;39.00;26.25
72467;PMS3003;60626;43.582;1.470;2023-03-01T07:22:39;45.75;37.25;25.00
72467;PMS3003;60626;43.582;1.470;2023-03-01T07:25:07;41.00;37.00;24.00
72467;PMS3003;60626;43.582;1.470;2023-03-01T07:27:34;39.25;34.25;24.00
72467;PMS3003;60626;43.582;1.470;2023-03-01T07:30:00;34.50;31.75;22.25
72467;PMS3003;60626;43.582;1.470;2023-03-01T07:32:27;42.25;36.75;23.25
72467;PMS3003;60626;43.582;1.470;2023-03-01T07:34:54;40.50;36.75;23.75
72467;PMS3003;60626;43.582;1.470;2023-03-01T07:37:21;39.50;35.00;23.25
72467;PMS3003;60626;43.582;1.470;2023-03-01T07:39:47;43.00;35.00;24.00
72467;PMS3003;60626;43.582;1.470;2023-03-01T07:42:14;44.25;36.00;24.00
72467;PMS3003;60626;43.582;1.470;2023-03-01T07:44:41;37.25;34.50;25.00
72467;PMS3003;60626;43.582;1.470;2023-03-01T07:47:07;41.50;35.75;23.25
72467;PMS3003;60626;43.582;1.470;2023-03-01T07:49:34;37.75;33.25;23.25
72467;PMS3003;60626;43.582;1.470;2023-03-01T07:52:01;44.25;32.75;21.25
72467;PMS3003;60626;43.582;1.470;2023-03-01T07:54:27;38.50;34.75;22.25
72467;PMS3003;60626;43.582;1.470;2023-03-01T07:56:55;40.00;35.00;22.25
72467;PMS3003;60626;43.582;1.470;2023-03-01T07:59:23;43.75;35.75;22.25
72467;PMS3003;60626;43.582;1.470;2023-03-01T08:01:55;38.75;33.75;22.25
72467;PMS3003;60626;43.582;1.470;2023-03-01T08:04:22;34.25;32.00;22.25
72467;PMS3003;60626;43.582;1.470;2023-03-01T08:06:51;40.00;35.50;23.75
72467;PMS3003;60626;43.582;1.470;2023-03-01T08:09:17;38.00;34.25;23.50
72467;PMS3003;60626;43.582;1.470;2023-03-01T08:11:44;38.75;35.50;23.75
72467;PMS3003;60626;43.582;1.470;2023-03-01T08:14:11;37.50;34.00;22.25
72467;PMS3003;60626;43.582;1.470;2023-03-01T08:16:38;38.25;34.50;22.25
72467;PMS3003;60626;43.582;1.470;2023-03-01T08:19:05;39.75;36.50;23.75
72467;PMS3003;60626;43.582;1.470;2023-03-01T08:21:33;34.75;31.25;20.50
72467;PMS3003;60626;43.582;1.470;2023-03-01T08:24:04;43.50;35.00;22.75
72467;PMS3003;60626;43.582;1.470;2023-03-01T08:26:32;39.50;32.50;21.50
72467;PMS3003;60626;43.582;1.470;2023-03-01T08:29:00;40.75;34.50;22.25
72467;PMS3003;60626;43.582;1.470;2023-03-01T08:31:29;36.50;34.50;22.50
72467;PMS3003;60626;43.582;1.470;2023-03-01T08:33:59;37.25;35.50;25.00
72467;PMS3003;60626;43.582;1.470;2023-03-01T08:36:28;36.25;34.75;23.50
72467;PMS3003;60626;43.582;1.470;2023-03-01T08:38:57;42.75;36.75;24.50
72467;PMS3003;60626;43.582;1.470;2023-03-01T08:41:24;44.25;36.00;24.00
72467;PMS3003;60626;43.582;1.470;2023-03-01T08:43:51;42.50;36.75;24.75
72467;PMS3003;60626;43.582;1.470;2023-03-01T08:46:19;39.75;36.00;25.25
72467;PMS3003;60626;43.582;1.470;2023-03-01T08:48:45;47.00;37.50;23.75
72467;PMS3003;60626;43.582;1.470;2023-03-01T08:51:14;46.25;37.25;24.25
72467;PMS3003;60626;43.582;1.470;2023-03-01T08:53:45;39.00;36.75;24.75
72467;PMS3003;60626;43.582;1.470;2023-03-01T08:56:12;46.50;40.00;25.25
72467;PMS3003;60626;43.582;1.470;2023-03-01T08:58:38;44.25;36.50;24.00
72467;PMS3003;60626;43.582;1.470;2023-03-01T09:01:06;47.50;39.25;24.50
72467;PMS3003;60626;43.582;1.470;2023-03-01T09:03:34;37.00;33.75;24.25
72467;PMS3003;60626;43.582;1.470;2023-03-01T09:06:01;43.25;36.50;25.00
72467;PMS3003;60626;43.582;1.470;2023-03-01T09:08:29;44.00;38.00;23.75
72467;PMS3003;60626;43.582;1.470;2023-03-01T09:10:56;44.50;36.50;23.75
72467;PMS3003;60626;43.582;1.470;2023-03-01T09:13:24;45.00;36.25;24.50
72467;PMS3003;60626;43.582;1.470;2023-03-01T09:15:54;46.25;37.00;25.00
72467;PMS3003;60626;43.582;1.470;2023-03-01T09:18:20;46.00;36.25;25.00
72467;PMS3003;60626;43.582;1.470;2023-03-01T09:20:47;42.25;37.25;24.00
72467;PMS3003;60626;43.582;1.470;2023-03-01T09:23:14;42.50;36.25;24.00
72467;PMS3003;60626;43.582;1.470;2023-03-01T09:25:40;46.00;38.75;26.00
72467;PMS3003;60626;43.582;1.470;2023-03-01T09:28:07;49.50;35.25;23.00
72467;PMS3003;60626;43.582;1.470;2023-03-01T09:30:40;38.25;35.00;24.50
72467;PMS3003;60626;43.582;1.470;2023-03-01T09:33:07;42.50;33.75;22.75
72467;PMS3003;60626;43.582;1.470;2023-03-01T09:35:40;44.00;35.50;23.50
72467;PMS3003;60626;43.582;1.470;2023-03-01T09:38:12;41.75;33.50;23.50
72467;PMS3003;60626;43.582;1.470;2023-03-01T09:40:43;40.50;32.00;22.00
72467;PMS3003;60626;43.582;1.470;2023-03-01T09:43:18;39.25;34.50;23.75
72467;PMS3003;60626;43.582;1.470;2023-03-01T09:45:53;37.75;32.75;23.25
72467;PMS3003;60626;43.582;1.470;2023-03-01T09:48:23;38.75;33.25;23.00
72467;PMS3003;60626;43.582;1.470;2023-03-01T09:50:52;36.75;32.75;22.50
72467;PMS3003;60626;43.582;1.470;2023-03-01T09:53:20;34.25;31.75;22.00
72467;PMS3003;60626;43.582;1.470;2023-03-01T09:55:58;33.00;29.25;21.25
72467;PMS3003;60626;43.582;1.470;2023-03-01T10:07:27;27.75;27.50;18.75
72467;PMS3003;60626;43.582;1.470;2023-03-01T10:09:56;29.00;29.00;19.75
72467;PMS3003;60626;43.582;1.470;2023-03-01T10:12:27;34.00;28.50;19.75
72467;PMS3003;60626;43.582;1.470;2023-03-01T10:15:22;35.00;29.50;21.00
72467;PMS3003;60626;43.582;1.470;2023-03-01T10:18:12;27.25;24.25;17.75
72467;PMS3003;60626;43.582;1.470;2023-03-01T10:20:46;30.00;28.25;17.75
72467;PMS3003;60626;43.582;1.470;2023-03-01T10:23:24;28.00;28.00;18.50
72467;PMS3003;60626;43.582;1.470;2023-03-01T10:31:12;24.00;23.00;18.00
72467;PMS3003;60626;43.582;1.470;2023-03-01T10:33:41;29.00;25.00;17.75
72467;PMS3003;60626;43.582;1.470;2023-03-01T10:36:08;26.00;22.75;17.75
72467;PMS3003;60626;43.582;1.470;2023-03-01T10:38:54;27.50;25.50;17.75
72467;PMS3003;60626;43.582;1.470;2023-03-01T10:41:24;23.25;23.25;16.00
72467;PMS3003;60626;43.582;1.470;2023-03-01T10:43:53;27.50;27.50;18.25
72467;PMS3003;60626;43.582;1.470;2023-03-01T10:46:31;24.25;23.75;17.00
72467;PMS3003;60626;43.582;1.470;2023-03-01T10:49:12;23.75;23.75;19.00
72467;PMS3003;60626;43.582;1.470;2023-03-01T10:51:46;24.50;24.50;17.00
72467;PMS3003;60626;43.582;1.470;2023-03-01T10:54:19;24.50;23.00;16.75
72467;PMS3003;60626;43.582;1.470;2023-03-01T10:56:49;30.75;27.50;18.00
72467;PMS3003;60626;43.582;1.470;2023-03-01T10:59:32;21.50;19.25;15.00
72467;PMS3003;60626;43.582;1.470;2023-03-01T11:04:56;20.75;19.75;15.50
72467;PMS3003;60626;43.582;1.470;2023-03-01T11:07:24;24.00;22.75;16.00
72467;PMS3003;60626;43.582;1.470;2023-03-01T11:09:51;23.25;23.25;15.00
72467;PMS3003;60626;43.582;1.470;2023-03-01T11:12:19;24.50;23.50;16.25
72467;PMS3003;60626;43.582;1.470;2023-03-01T11:14:51;23.00;22.25;14.75
72467;PMS3003;60626;43.582;1.470;2023-03-01T11:17:24;27.50;24.50;15.50
72467;PMS3003;60626;43.582;1.470;2023-03-01T11:22:47;28.00;22.75;16.25
72467;PMS3003;60626;43.582;1.470;2023-03-01T11:25:19;25.00;25.00;17.50
72467;PMS3003;60626;43.582;1.470;2023-03-01T11:27:51;21.75;21.75;16.25
72467;PMS3003;60626;43.582;1.470;2023-03-01T11:38:36;25.25;24.50;15.25
72467;PMS3003;60626;43.582;1.470;2023-03-01T11:41:11;21.50;21.00;14.50
72467;PMS3003;60626;43.582;1.470;2023-03-01T11:55:00;21.50;20.50;16.00
72467;PMS3003;60626;43.582;1.470;2023-03-01T12:09:02;24.00;23.25;15.75
72467;PMS3003;60626;43.582;1.470;2023-03-01T12:18:04;20.75;19.00;13.75
72467;PMS3003;60626;43.582;1.470;2023-03-01T12:31:04;25.25;23.25;14.25
72467;PMS3003;60626;43.582;1.470;2023-03-01T12:33:41;22.75;20.75;15.50
72467;PMS3003;60626;43.582;1.470;2023-03-01T12:36:31;18.75;18.75;14.00
72467;PMS3003;60626;43.582;1.470;2023-03-01T12:50:17;20.75;19.00;15.50
72467;PMS3003;60626;43.582;1.470;2023-03-01T12:52:51;15.25;15.00;13.50
72467;PMS3003;60626;43.582;1.470;2023-03-01T12:55:41;19.25;18.75;13.25
72467;PMS3003;60626;43.582;1.470;2023-03-01T13:06:57;21.50;21.25;14.75
72467;PMS3003;60626;43.582;1.470;2023-03-01T13:09:30;18.75;18.00;11.25
72467;PMS3003;60626;43.582;1.470;2023-03-01T13:18:26;19.50;19.25;14.00
72467;PMS3003;60626;43.582;1.470;2023-03-01T13:20:55;23.50;21.00;13.75
72467;PMS3003;60626;43.582;1.470;2023-03-01T13:23:24;24.00;20.25;15.00
72467;PMS3003;60626;43.582;1.470;2023-03-01T13:31:02;19.00;19.00;13.00
72467;PMS3003;60626;43.582;1.470;2023-03-01T13:33:39;20.75;18.75;13.00
72467;PMS3003;60626;43.582;1.470;2023-03-01T13:36:07;22.00;19.00;13.25
72467;PMS3003;60626;43.582;1.470;2023-03-01T13:46:48;23.50;20.50;15.00
72467;PMS3003;60626;43.582;1.470;2023-03-01T13:49:18;19.00;17.25;11.75
72467;PMS3003;60626;43.582;1.470;2023-03-01T13:51:47;17.25;17.25;12.00
72467;PMS3003;60626;43.582;1.470;2023-03-01T13:54:25;22.50;19.75;14.25
72467;PMS3003;60626;43.582;1.470;2023-03-01T13:56:55;22.00;20.50;14.25
72467;PMS3003;60626;43.582;1.470;2023-03-01T13:59:24;20.75;19.75;15.25
72467;PMS3003;60626;43.582;1.470;2023-03-01T14:01:53;24.00;21.00;14.00
72467;PMS3003;60626;43.582;1.470;2023-03-01T14:04:22;16.00;14.25;12.75
72467;PMS3003;60626;43.582;1.470;2023-03-01T14:06:49;24.25;18.25;12.00
72467;PMS3003;60626;43.582;1.470;2023-03-01T14:15:22;18.75;15.50;11.00
72467;PMS3003;60626;43.582;1.470;2023-03-01T14:17:40;21.00;20.00;13.50
72467;PMS3003;60626;43.582;1.470;2023-03-01T14:20:16;21.75;20.50;13.50
72467;PMS3003;60626;43.582;1.470;2023-03-01T14:22:43;18.50;18.25;13.75
72467;PMS3003;60626;43.582;1.470;2023-03-01T14:25:32;19.75;19.75;13.00
72467;PMS3003;60626;43.582;1.470;2023-03-01T14:28:16;23.25;18.75;14.25
72467;PMS3003;60626;43.582;1.470;2023-03-01T14:30:49;20.75;20.75;15.00
72467;PMS3003;60626;43.582;1.470;2023-03-01T14:33:18;24.00;18.25;13.25
72467;PMS3003;60626;43.582;1.470;2023-03-01T14:43:37;21.25;20.75;14.25
72467;PMS3003;60626;43.582;1.470;2023-03-01T14:46:16;23.25;21.50;15.25
72467;PMS3003;60626;43.582;1.470;2023-03-01T14:49:02;18.00;18.00;15.25
72467;PMS3003;60626;43.582;1.470;2023-03-01T14:51:35;25.75;22.25;15.25
72467;PMS3003;60626;43.582;1.470;2023-03-01T14:54:20;23.25;22.75;15.75
72467;PMS3003;60626;43.582;1.470;2023-03-01T14:56:50;24.25;22.00;15.50
72467;PMS3003;60626;43.582;1.470;2023-03-01T14:59:20;24.50;20.50;13.00
72467;PMS3003;60626;43.582;1.470;2023-03-01T15:01:50;23.00;19.75;14.00
72467;PMS3003;60626;43.582;1.470;2023-03-01T15:04:19;20.75;19.50;11.75
72467;PMS3003;60626;43.582;1.470;2023-03-01T15:06:47;20.25;20.25;13.00
72467;PMS3003;60626;43.582;1.470;2023-03-01T15:09:18;22.50;18.50;14.25
72467;PMS3003;60626;43.582;1.470;2023-03-01T15:11:45;24.25;22.75;14.00
72467;PMS3003;60626;43.582;1.470;2023-03-01T15:14:24;27.25;23.75;15.50
72467;PMS3003;60626;43.582;1.470;2023-03-01T15:17:37;23.00;19.00;14.00
72467;PMS3003;60626;43.582;1.470;2023-03-01T15:20:18;29.25;22.00;17.25
72467;PMS3003;60626;43.582;1.470;2023-03-01T15:22:52;25.75;23.00;15.25
72467;PMS3003;60626;43.582;1.470;2023-03-01T15:25:21;24.75;20.75;14.00
72467;PMS3003;60626;43.582;1.470;2023-03-01T15:27:51;22.50;19.00;13.25
72467;PMS3003;60626;43.582;1.470;2023-03-01T15:30:27;22.50;20.00;14.75
72467;PMS3003;60626;43.582;1.470;2023-03-01T15:33:17;20.50;18.25;14.00
72467;PMS3003;60626;43.582;1.470;2023-03-01T15:37:02;23.25;19.25;12.75
72467;PMS3003;60626;43.582;1.470;2023-03-01T15:38:58;24.50;22.50;17.00
72467;PMS3003;60626;43.582;1.470;2023-03-01T15:43:54;22.25;19.75;14.50
72467;PMS3003;60626;43.582;1.470;2023-03-01T15:48:50;21.50;21.50;16.00
72467;PMS3003;60626;43.582;1.470;2023-03-01T15:51:22;22.50;19.75;13.75
72467;PMS3003;60626;43.582;1.470;2023-03-01T15:53:54;20.00;18.50;13.75
72467;PMS3003;60626;43.582;1.470;2023-03-01T15:56:24;23.00;19.50;13.25
72467;PMS3003;60626;43.582;1.470;2023-03-01T15:58:51;21.25;21.25;13.00
72467;PMS3003;60626;43.582;1.470;2023-03-01T16:01:17;20.50;18.50;15.00
72467;PMS3003;60626;43.582;1.470;2023-03-01T16:03:45;24.25;21.00;15.25
72467;PMS3003;60626;43.582;1.470;2023-03-01T16:06:12;21.75;21.75;15.25
72467;PMS3003;60626;43.582;1.470;2023-03-01T16:08:38;20.00;17.75;12.75
72467;PMS3003;60626;43.582;1.470;2023-03-01T16:11:09;21.75;19.50;13.00
72467;PMS3003;60626;43.582;1.470;2023-03-01T16:13:43;22.00;21.00;13.00
72467;PMS3003;60626;43.582;1.470;2023-03-01T16:16:12;21.75;19.75;12.00
72467;PMS3003;60626;43.582;1.470;2023-03-01T16:18:44;19.75;19.50;13.25
72467;PMS3003;60626;43.582;1.470;2023-03-01T16:21:13;18.25;14.50;11.25